Terminal Aerodrome Forecast
Issued by NWS Quad Cities IA IL

Home | Current Version | Previous Version | Text Only | Print | Product List | Glossary On
Versions: 1 2 3 4 5 6 7 8 9 10 11 12 13 14 15 16 17 18 19 20
000
FTUS43 KDVN 262300 RRA
TAFDBQ
TAF
KDBQ 262341Z 2700/2724 VRB03KT P6SM SCT100 BKN250
     FM270300 05004KT P6SM BKN035 BKN150
     FM270600 VRB03KT 6SM -RA BR OVC025
     FM270900 VRB03KT 3SM -RA BR OVC008
     FM271400 27012KT 5SM BR OVC006
     FM271800 29016G24KT P6SM BKN015=

USA.gov is the U.S. government's official web portal to all federal, state and local government web resources and services.